createdAt,value
2022-10-25T00:00:06.429Z,102222.28
2022-10-25T00:03:16.593Z,102231.88
2022-10-25T00:06:20.984Z,102216.59
2022-10-25T00:09:28.198Z,102231.47
2022-10-25T00:12:32.439Z,102231.13
2022-10-25T00:15:36.836Z,102232.31
2022-10-25T00:18:41.279Z,102243.63
2022-10-25T00:21:45.757Z,102246.94
2022-10-25T00:24:50.140Z,102242.22
2022-10-25T00:27:54.473Z,102245.88
2022-10-25T00:31:07.302Z,102238.91
2022-10-25T00:34:12.526Z,102229.94
2022-10-25T00:37:16.958Z,102233.97
2022-10-25T00:40:21.396Z,102234.06
2022-10-25T00:43:38.012Z,102238.53
2022-10-25T00:46:42.520Z,102219.09
2022-10-25T00:49:58.870Z,102234.13
2022-10-25T00:53:15.102Z,102237.66
2022-10-25T00:56:21.414Z,102226.22
2022-10-25T00:59:29.491Z,102220.91
2022-10-25T01:02:34.288Z,102222.75
2022-10-25T01:05:39.290Z,102219.19
2022-10-25T01:08:45.237Z,102183.78
2022-10-25T01:11:50.503Z,102213.03
2022-10-25T01:14:56.722Z,102217.50
2022-10-25T01:18:24.796Z,102197.94
2022-10-25T01:21:34.827Z,102194.44
2022-10-25T01:25:15.580Z,102198.03
2022-10-25T01:28:35.198Z,102196.25
2022-10-25T01:32:15.048Z,102195.38
2022-10-25T01:35:27.849Z,102188.28
2022-10-25T01:38:49.818Z,102172.34
2022-10-25T01:42:12.613Z,102176.72
2022-10-25T01:45:24.790Z,102146.59
2022-10-25T01:48:38.061Z,102181.16
2022-10-25T01:51:42.618Z,102189.81
2022-10-25T01:54:46.843Z,102179.19
2022-10-25T01:58:24.153Z,102173.84
2022-10-25T02:05:32.316Z,102163.22
2022-10-25T02:08:42.881Z,102143.78
2022-10-25T02:11:47.672Z,102150.91
2022-10-25T02:15:04.883Z,102147.19
2022-10-25T02:18:15.504Z,102152.53
2022-10-25T02:21:21.162Z,102098.50
2022-10-25T02:24:33.349Z,102149.94
2022-10-25T02:27:43.264Z,102014.44
2022-10-25T02:30:51.302Z,102141.94
2022-10-25T02:33:55.764Z,102127.78
2022-10-25T02:37:03.194Z,102147.34
2022-10-25T02:40:08.405Z,102129.66
2022-10-25T02:43:12.791Z,102105.59
2022-10-25T02:46:21.391Z,102095.03
2022-10-25T02:49:25.647Z,102109.31
2022-10-25T02:52:30.032Z,102119.91
2022-10-25T02:55:34.526Z,102111.06
2022-10-25T02:58:40.623Z,102112.84
2022-10-25T03:01:45.165Z,102080.94
2022-10-25T03:04:54.545Z,102098.63
2022-10-25T03:07:58.936Z,102102.16
2022-10-25T03:11:03.647Z,102087.22
2022-10-25T03:14:08.184Z,102067.75
2022-10-25T03:17:12.547Z,102078.38
2022-10-25T03:20:17.155Z,102061.63
2022-10-25T03:23:21.602Z,102081.94
2022-10-25T03:26:26.348Z,102062.50
2022-10-25T03:29:33.103Z,102058.97
2022-10-25T03:32:38.378Z,102055.47
2022-10-25T03:35:42.834Z,102065.19
2022-10-25T03:38:47.152Z,102056.31
2022-10-25T03:41:51.512Z,102046.59
2022-10-25T03:44:56.135Z,102047.47
2022-10-25T03:48:02.826Z,102043.06
2022-10-25T03:51:07.512Z,102028.91
2022-10-25T03:54:11.809Z,102033.31
2022-10-25T03:57:16.443Z,102024.50
2022-10-25T04:00:21.089Z,102011.22
2022-10-25T04:03:25.564Z,101997.91
2022-10-25T04:06:30.806Z,102012.97
2022-10-25T04:09:35.432Z,102006.78
2022-10-25T04:12:39.780Z,101997.97
2022-10-25T04:15:44.171Z,101989.13
2022-10-25T04:18:48.542Z,101997.06
2022-10-25T04:21:52.673Z,101970.53
2022-10-25T04:24:57.317Z,101990.88
2022-10-25T04:28:01.662Z,101986.47
2022-10-25T04:31:06.036Z,101968.75
2022-10-25T04:34:10.234Z,101982.00
2022-10-25T04:37:14.594Z,101975.78
2022-10-25T04:40:23.960Z,101966.09
2022-10-25T04:43:30.185Z,101959.00
2022-10-25T04:46:34.484Z,101961.66
2022-10-25T04:49:39.775Z,101966.09
2022-10-25T04:52:44.121Z,101944.81
2022-10-25T04:55:58.748Z,101948.38
2022-10-25T04:59:06.190Z,101936.06
2022-10-25T05:02:10.664Z,101950.16
2022-10-25T05:05:15.038Z,101932.47
2022-10-25T05:08:19.394Z,101959.91
2022-10-25T05:11:27.197Z,101949.28
2022-10-25T05:14:31.461Z,101944.88
2022-10-25T05:17:35.848Z,101944.00
2022-10-25T05:20:40.236Z,101929.88
2022-10-25T05:23:45.030Z,101931.59
2022-10-25T05:26:49.328Z,101925.38
2022-10-25T05:29:59.774Z,101923.63
2022-10-25T05:33:04.926Z,101910.31
2022-10-25T05:36:09.594Z,101918.34
2022-10-25T05:39:14.139Z,101879.38
2022-10-25T05:42:18.686Z,101905.84
2022-10-25T05:45:23.209Z,101903.13
2022-10-25T05:48:27.578Z,101896.94
2022-10-25T05:51:35.638Z,101902.34
2022-10-25T05:54:40.479Z,101873.13
2022-10-25T05:57:51.170Z,101891.69
2022-10-25T06:00:55.499Z,101889.09
2022-10-25T06:04:00.299Z,101892.63
2022-10-25T06:07:04.975Z,101904.16
2022-10-25T06:10:10.715Z,101902.44
2022-10-25T06:13:16.374Z,101905.94
2022-10-25T06:16:21.865Z,101903.34
2022-10-25T06:19:26.168Z,101894.47
2022-10-25T06:22:31.791Z,101892.72
2022-10-25T06:25:36.311Z,101910.38
2022-10-25T06:28:41.546Z,101898.00
2022-10-25T06:31:46.120Z,101892.72
2022-10-25T06:34:50.542Z,101883.88
2022-10-25T06:37:54.857Z,101875.91
2022-10-25T06:41:03.945Z,101864.44
2022-10-25T06:44:08.945Z,101875.03
2022-10-25T06:47:17.451Z,101896.25
2022-10-25T06:50:22.374Z,101887.41
2022-10-25T06:53:26.864Z,101891.84
2022-10-25T06:56:31.421Z,101886.53
2022-10-25T06:59:35.932Z,101879.47
2022-10-25T07:02:40.290Z,101890.06
2022-10-25T07:05:44.621Z,101848.50
2022-10-25T07:08:49.450Z,101876.81
2022-10-25T07:11:53.726Z,101871.47
2022-10-25T07:14:57.942Z,101878.50
2022-10-25T07:18:03.596Z,101870.53
2022-10-25T07:21:14.057Z,101877.63
2022-10-25T07:24:18.755Z,101885.47
2022-10-25T07:27:23.308Z,101880.13
2022-10-25T07:30:27.767Z,101817.28
2022-10-25T07:33:32.956Z,101881.84
2022-10-25T07:36:37.456Z,101868.44
2022-10-25T07:39:43.181Z,101875.34
2022-10-25T07:42:50.056Z,101861.13
2022-10-25T07:45:54.912Z,101884.06
2022-10-25T07:48:59.340Z,101876.16
2022-10-25T07:52:03.937Z,101876.06
2022-10-25T07:55:09.147Z,101874.19
2022-10-25T07:58:13.564Z,101866.94
2022-10-25T08:01:29.401Z,101878.34
2022-10-25T08:04:33.645Z,101866.78
2022-10-25T08:07:39.438Z,101873.63
2022-10-25T08:10:45.582Z,101870.66
2022-10-25T08:13:51.774Z,101871.06
2022-10-25T08:16:56.264Z,101861.97
2022-10-25T08:20:01.160Z,101837.09
2022-10-25T08:23:07.979Z,101873.50
2022-10-25T08:26:12.430Z,101867.25
2022-10-25T08:29:17.121Z,101882.44
2022-10-25T08:32:22.944Z,101873.78
2022-10-25T08:35:27.535Z,101858.84
2022-10-25T08:38:32.331Z,101862.38
2022-10-25T08:41:54.568Z,101877.06
2022-10-25T08:45:26.624Z,101861.25
2022-10-25T08:48:37.699Z,101875.06
2022-10-25T08:51:46.410Z,101879.16
2022-10-25T08:54:51.639Z,101876.97
2022-10-25T08:57:57.913Z,101882.19
2022-10-25T09:01:08.770Z,101889.00
2022-10-25T09:04:13.356Z,101890.16
2022-10-25T09:08:03.757Z,101895.41
2022-10-25T09:11:16.340Z,101897.97
2022-10-25T09:14:44.464Z,101899.09
2022-10-25T09:17:54.349Z,101893.50
2022-10-25T09:21:02.372Z,101880.44
2022-10-25T09:24:22.518Z,101888.59
2022-10-25T09:27:37.398Z,101900.63
2022-10-25T09:30:45.053Z,101907.06
2022-10-25T09:33:52.971Z,101908.34
2022-10-25T09:37:05.949Z,101909.16
2022-10-25T09:40:24.116Z,101907.81
2022-10-25T09:43:55.742Z,101913.22
2022-10-25T09:47:06.387Z,101910.34
2022-10-25T09:50:20.380Z,101915.25
2022-10-25T09:53:24.806Z,101918.28
2022-10-25T09:56:29.132Z,101899.16
2022-10-25T09:59:33.606Z,101911.09
2022-10-25T10:02:38.335Z,101912.09
2022-10-25T10:05:51.627Z,101895.59
2022-10-25T10:09:05.617Z,101907.72
2022-10-25T10:12:21.735Z,101908.00
2022-10-25T10:15:39.555Z,101909.50
2022-10-25T10:18:45.254Z,101911.84
2022-10-25T10:21:51.211Z,101905.72
2022-10-25T10:25:02.172Z,101895.09
2022-10-25T10:28:15.817Z,101910.41
2022-10-25T10:31:21.057Z,101762.88
2022-10-25T10:34:28.432Z,101895.69
2022-10-25T10:37:34.745Z,101894.22
2022-10-25T10:40:39.259Z,101883.44
2022-10-25T10:43:43.714Z,101875.69
2022-10-25T10:46:50.114Z,101879.19
2022-10-25T10:49:54.458Z,101887.59
2022-10-25T10:53:30.380Z,101891.59
2022-10-25T10:56:35.211Z,101890.91
2022-10-25T10:59:46.672Z,101876.06
2022-10-25T11:02:51.783Z,101872.97
2022-10-25T11:06:01.198Z,101870.16
2022-10-25T11:09:14.184Z,101872.81
2022-10-25T11:12:19.634Z,101874.75
2022-10-25T11:15:23.897Z,101873.13
2022-10-25T11:18:39.397Z,101866.78
2022-10-25T11:22:06.442Z,101871.56
2022-10-25T11:25:13.936Z,101874.47
2022-10-25T11:28:36.244Z,101873.25
2022-10-25T11:31:59.173Z,101871.63
2022-10-25T11:35:34.167Z,101863.88
2022-10-25T11:39:01.997Z,101862.47
2022-10-25T11:42:31.250Z,101860.19
2022-10-25T11:45:57.205Z,101829.97
2022-10-25T11:49:28.003Z,101850.53
2022-10-25T11:52:44.920Z,101853.34
2022-10-25T11:56:15.635Z,101847.59
2022-10-25T11:59:35.168Z,101854.13
2022-10-25T12:02:54.787Z,101853.94
2022-10-25T12:06:25.740Z,101810.78
2022-10-25T12:10:02.533Z,101850.69
2022-10-25T12:13:06.630Z,101851.56
2022-10-25T12:16:15.581Z,101836.63
2022-10-25T12:19:28.394Z,101850.75
2022-10-25T12:22:40.652Z,101839.63
2022-10-25T12:25:49.462Z,101847.66
2022-10-25T12:28:54.023Z,101859.25
2022-10-25T12:32:02.155Z,101846.78
2022-10-25T12:35:19.660Z,101835.75
2022-10-25T12:38:38.113Z,101854.69
2022-10-25T12:41:47.553Z,101846.59
2022-10-25T12:45:14.525Z,101852.81
2022-10-25T12:48:57.235Z,101849.50
2022-10-25T12:52:29.378Z,101854.69
2022-10-25T12:55:45.281Z,101850.13
2022-10-25T12:58:55.515Z,101854.94
2022-10-25T13:02:06.243Z,101856.81
2022-10-25T13:05:13.298Z,101852.50
2022-10-25T13:08:23.604Z,101834.38
2022-10-25T13:11:40.519Z,101846.63
2022-10-25T13:14:55.393Z,101861.31
2022-10-25T13:18:06.107Z,101836.16
2022-10-25T13:21:16.355Z,101826.94
2022-10-25T13:24:42.158Z,101843.31
2022-10-25T13:28:18.002Z,101850.09
2022-10-25T13:31:36.983Z,101849.41
2022-10-25T13:34:41.486Z,101849.47
2022-10-25T13:37:46.653Z,101844.84
2022-10-25T13:41:09.600Z,101851.13
2022-10-25T13:44:27.482Z,101843.38
2022-10-25T13:47:42.649Z,101856.84
2022-10-25T13:51:09.826Z,101854.94
2022-10-25T13:54:14.556Z,101850.59
2022-10-25T13:57:46.235Z,101852.13
2022-10-25T14:00:53.728Z,101849.75
2022-10-25T14:04:21.593Z,101822.63
2022-10-25T14:07:56.353Z,101841.78
2022-10-25T14:11:38.884Z,101849.06
2022-10-25T14:14:49.123Z,101849.09
2022-10-25T14:17:54.030Z,101825.19
2022-10-25T14:21:06.172Z,101840.53
2022-10-25T14:24:15.677Z,101788.34
2022-10-25T14:27:35.855Z,101810.06
2022-10-25T14:30:51.540Z,101840.50
2022-10-25T14:33:57.336Z,101828.94
2022-10-25T14:37:02.626Z,101832.06
2022-10-25T14:40:37.117Z,101817.03
2022-10-25T14:43:44.487Z,101822.38
2022-10-25T14:46:48.800Z,101791.50
2022-10-25T14:49:53.089Z,101805.06
2022-10-25T14:53:00.455Z,101802.25
2022-10-25T14:56:07.083Z,101811.22
2022-10-25T14:59:22.206Z,101819.97
2022-10-25T15:02:33.972Z,101820.50
2022-10-25T15:05:42.746Z,101809.91
2022-10-25T15:08:51.615Z,101806.94
2022-10-25T15:12:15.686Z,101805.47
2022-10-25T15:15:41.443Z,101808.09
2022-10-25T15:18:45.942Z,101787.75
2022-10-25T15:21:54.509Z,101786.34
2022-10-25T15:25:00.056Z,101796.63
2022-10-25T15:28:16.818Z,101807.19
2022-10-25T15:31:26.303Z,101808.03
2022-10-25T15:34:30.999Z,101762.34
2022-10-25T15:37:35.416Z,101760.91
2022-10-25T15:40:40.161Z,101806.41
2022-10-25T15:43:44.874Z,101801.50
2022-10-25T15:46:49.885Z,101805.06
2022-10-25T15:49:54.937Z,101805.91
2022-10-25T15:52:59.367Z,101811.03
2022-10-25T15:56:04.143Z,101796.00
2022-10-25T15:59:08.955Z,101805.59
2022-10-25T16:02:32.720Z,101821.25
2022-10-25T16:05:39.343Z,101814.66
2022-10-25T16:08:43.810Z,101803.72
2022-10-25T16:11:54.947Z,101808.25
2022-10-25T16:14:59.593Z,101813.78
2022-10-25T16:18:04.157Z,101816.41
2022-10-25T16:21:08.504Z,101818.81
2022-10-25T16:24:14.068Z,101825.84
2022-10-25T16:27:18.148Z,101806.84
2022-10-25T16:30:25.879Z,101812.88
2022-10-25T16:33:30.297Z,101819.91
2022-10-25T16:36:34.884Z,101828.56
2022-10-25T16:39:39.126Z,101792.53
2022-10-25T16:42:44.111Z,101826.50
2022-10-25T16:45:48.696Z,101823.19
2022-10-25T16:48:56.961Z,101843.16
2022-10-25T16:52:06.278Z,101848.44
2022-10-25T16:55:11.588Z,101809.47
2022-10-25T16:58:15.928Z,101834.00
2022-10-25T17:01:41.228Z,101847.38
2022-10-25T17:04:51.727Z,101842.53
2022-10-25T17:07:58.846Z,101826.56
2022-10-25T17:11:03.153Z,101805.19
2022-10-25T17:14:10.435Z,101833.50
2022-10-25T17:17:14.902Z,101834.50
2022-10-25T17:20:19.272Z,101835.28
2022-10-25T17:23:23.594Z,101842.53
2022-10-25T17:26:28.067Z,101833.78
2022-10-25T17:29:52.216Z,101834.88
2022-10-25T17:32:56.694Z,101837.28
2022-10-25T17:36:25.702Z,101836.03
2022-10-25T17:39:29.975Z,101808.88
2022-10-25T17:42:34.206Z,101827.78
2022-10-25T17:45:38.859Z,101849.91
2022-10-25T17:48:43.420Z,101854.31
2022-10-25T17:51:48.974Z,101829.94
2022-10-25T17:54:53.218Z,101836.41
2022-10-25T17:57:57.939Z,101836.03
2022-10-25T18:01:07.248Z,101816.91
2022-10-25T18:04:11.784Z,101828.22
2022-10-25T18:07:17.394Z,101815.75
2022-10-25T18:10:22.060Z,101799.69
2022-10-25T18:13:27.858Z,101811.25
2022-10-25T18:16:32.820Z,101805.50
2022-10-25T18:19:37.842Z,101749.81
2022-10-25T18:22:42.514Z,101793.88
2022-10-25T18:25:54.168Z,101797.06
2022-10-25T18:28:59.673Z,101805.00
2022-10-25T18:32:04.206Z,101795.72
2022-10-25T18:35:09.953Z,101787.38
2022-10-25T18:38:17.712Z,101784.28
2022-10-25T18:41:31.983Z,101785.84
2022-10-25T18:44:36.543Z,101787.31
2022-10-25T18:47:42.232Z,101804.81
2022-10-25T18:50:46.350Z,101804.81
2022-10-25T18:53:57.063Z,101797.56
2022-10-25T18:57:01.584Z,101730.41
2022-10-25T19:00:06.897Z,101797.47
2022-10-25T19:03:16.007Z,101790.31
2022-10-25T19:06:20.842Z,101785.16
2022-10-25T19:09:25.562Z,101787.88
2022-10-25T19:12:30.274Z,101787.28
2022-10-25T19:15:34.534Z,101784.47
2022-10-25T19:18:39.192Z,101781.84
2022-10-25T19:21:43.970Z,101776.13
2022-10-25T19:24:49.082Z,101794.13
2022-10-25T19:27:53.540Z,101786.50
2022-10-25T19:30:57.805Z,101791.16
2022-10-25T19:34:04.095Z,101800.81
2022-10-25T19:37:09.745Z,101797.50
2022-10-25T19:40:14.226Z,101795.00
2022-10-25T19:43:19.828Z,101785.00
2022-10-25T19:46:24.606Z,101772.59
2022-10-25T19:49:29.688Z,101774.00
2022-10-25T19:52:38.232Z,101796.00
2022-10-25T19:55:42.838Z,101794.69
2022-10-25T19:58:47.336Z,101785.25
2022-10-25T20:01:51.757Z,101785.50
2022-10-25T20:04:56.411Z,101796.59
2022-10-25T20:08:00.806Z,101794.22
2022-10-25T20:11:05.785Z,101797.59
2022-10-25T20:14:10.723Z,101796.28
2022-10-25T20:17:16.266Z,101785.19
2022-10-25T20:20:20.554Z,101776.63
2022-10-25T20:23:25.160Z,101786.44
2022-10-25T20:26:31.899Z,101772.59
2022-10-25T20:29:36.458Z,101776.34
2022-10-25T20:32:41.063Z,101776.84
2022-10-25T20:35:46.696Z,101779.19
2022-10-25T20:38:51.038Z,101758.16
2022-10-25T20:41:55.579Z,101771.94
2022-10-25T20:45:00.061Z,101753.66
2022-10-25T20:48:04.725Z,101779.97
2022-10-25T20:51:10.569Z,101771.47
2022-10-25T20:54:17.057Z,101759.38
2022-10-25T20:57:21.827Z,101767.88
2022-10-25T21:00:26.181Z,101769.63
2022-10-25T21:03:33.638Z,101774.94
2022-10-25T21:06:38.186Z,101786.44
2022-10-25T21:09:47.064Z,101765.53
2022-10-25T21:12:53.892Z,101768.22
2022-10-25T21:15:58.837Z,101753.06
2022-10-25T21:19:06.483Z,101766.53
2022-10-25T21:22:10.877Z,101752.53
2022-10-25T21:25:16.455Z,101760.34
2022-10-25T21:28:21.032Z,101790.78
2022-10-25T21:31:25.526Z,101766.81
2022-10-25T21:34:29.956Z,101755.13
2022-10-25T21:37:34.580Z,101751.25
2022-10-25T21:40:38.992Z,101751.44
2022-10-25T21:43:46.444Z,101761.53
2022-10-25T21:46:51.090Z,101734.13
2022-10-25T21:49:55.381Z,101757.03
2022-10-25T21:52:59.873Z,101736.88
2022-10-25T21:56:11.098Z,101753.84
2022-10-25T21:59:15.534Z,101719.88
2022-10-25T22:02:20.109Z,101756.06
2022-10-25T22:05:24.497Z,101754.34
2022-10-25T22:08:28.690Z,101759.84
2022-10-25T22:11:36.315Z,101756.44
2022-10-25T22:14:40.578Z,101746.91
2022-10-25T22:17:45.083Z,101752.28
2022-10-25T22:21:01.046Z,101753.03
2022-10-25T22:24:09.250Z,101746.75
2022-10-25T22:27:13.653Z,101731.66
2022-10-25T22:30:19.120Z,101725.06
2022-10-25T22:33:23.615Z,101729.13
2022-10-25T22:36:30.354Z,101714.50
2022-10-25T22:39:34.741Z,101746.34
2022-10-25T22:42:38.986Z,101760.94
2022-10-25T22:45:43.415Z,101763.91
2022-10-25T22:48:47.741Z,101755.41
2022-10-25T22:51:52.272Z,101763.06
2022-10-25T22:54:56.652Z,101773.63
2022-10-25T22:58:00.997Z,101777.31
2022-10-25T23:01:08.526Z,101760.19
2022-10-25T23:04:13.006Z,101760.91
2022-10-25T23:07:17.548Z,101757.97
2022-10-25T23:10:21.955Z,101766.53
2022-10-25T23:13:26.324Z,101772.25
2022-10-25T23:16:31.126Z,101731.63
2022-10-25T23:19:35.357Z,101757.44
2022-10-25T23:22:40.056Z,101757.00
2022-10-25T23:25:44.549Z,101765.97
2022-10-25T23:28:49.213Z,101766.72
2022-10-25T23:31:53.423Z,101738.88
2022-10-25T23:34:57.644Z,101756.25
2022-10-25T23:38:03.371Z,101773.53
2022-10-25T23:41:07.746Z,101763.09
2022-10-25T23:44:12.589Z,101752.69
2022-10-25T23:47:17.029Z,101755.47
2022-10-25T23:50:21.616Z,101776.75
2022-10-25T23:53:26.215Z,101734.41
2022-10-25T23:56:30.370Z,101764.16
2022-10-25T23:59:34.958Z,101756.13
